Řízení letového provozu České republiky
Letiste: LKCV Aktualizace: 12.11.2018 19:01:06  UTC
 METAR LKCV 12.11. 19:00 ...
METAR LKCV 121900Z 26005KT 9999 OVC017 10/08 Q1023 NOSIG RMK WHT WHT=
 TAF LKCV 12.11. 17:00 ...
TAF LKCV 121700Z 1218/1318 15008KT 9999 OVC017      BECMG 1218/1220 11004KT      TEMPO 1219/1221 6000      TEMPO 1221/1309 3000 BR OVC007      BECMG 1309/1311 25005KT      BECMG 1314/1316 27012KT SCT030=